sensor_id;sensor_type;location;lat;lon;timestamp;pressure;altitude;pressure_sealevel;temperature;humidity
62524;BME280;53689;56.878;60.672;2024-02-26T00:01:37;99886.28;;;20.12;25.35
62524;BME280;53689;56.878;60.672;2024-02-26T00:04:05;99884.03;;;20.07;26.58
62524;BME280;53689;56.878;60.672;2024-02-26T00:06:32;99879.97;;;20.31;24.83
62524;BME280;53689;56.878;60.672;2024-02-26T00:09:01;99886.16;;;20.32;23.81
62524;BME280;53689;56.878;60.672;2024-02-26T00:11:28;99881.44;;;20.16;25.34
62524;BME280;53689;56.878;60.672;2024-02-26T00:13:56;99881.09;;;20.29;26.08
62524;BME280;53689;56.878;60.672;2024-02-26T00:16:24;99880.06;;;20.40;25.77
62524;BME280;53689;56.878;60.672;2024-02-26T00:18:53;99880.66;;;20.33;25.10
62524;BME280;53689;56.878;60.672;2024-02-26T00:21:22;99881.69;;;20.22;24.40
62524;BME280;53689;56.878;60.672;2024-02-26T00:23:50;99881.69;;;20.22;26.05
62524;BME280;53689;56.878;60.672;2024-02-26T00:26:18;99885.00;;;20.44;25.53
62524;BME280;53689;56.878;60.672;2024-02-26T00:28:45;99871.78;;;20.51;24.96
62524;BME280;53689;56.878;60.672;2024-02-26T00:31:13;99879.41;;;20.28;24.13
62524;BME280;53689;56.878;60.672;2024-02-26T00:33:41;99882.47;;;20.33;25.10
62524;BME280;53689;56.878;60.672;2024-02-26T00:36:11;99880.34;;;20.36;24.58
62524;BME280;53689;56.878;60.672;2024-02-26T00:38:39;99876.06;;;20.16;25.42
62524;BME280;53689;56.878;60.672;2024-02-26T00:41:07;99872.91;;;20.30;26.23
62524;BME280;53689;56.878;60.672;2024-02-26T00:43:35;99869.19;;;20.31;25.58
62524;BME280;53689;56.878;60.672;2024-02-26T00:46:03;99863.47;;;20.44;24.41
62524;BME280;53689;56.878;60.672;2024-02-26T00:48:31;99871.59;;;20.99;24.77
62524;BME280;53689;56.878;60.672;2024-02-26T00:50:59;99867.69;;;20.93;26.42
62524;BME280;53689;56.878;60.672;2024-02-26T00:53:29;99862.09;;;20.58;24.01
62524;BME280;53689;56.878;60.672;2024-02-26T00:55:56;99867.53;;;20.66;26.26
62524;BME280;53689;56.878;60.672;2024-02-26T00:58:24;99860.31;;;20.49;25.48
62524;BME280;53689;56.878;60.672;2024-02-26T01:00:52;99861.00;;;20.51;25.58
62524;BME280;53689;56.878;60.672;2024-02-26T01:03:20;99859.88;;;20.54;24.42
62524;BME280;53689;56.878;60.672;2024-02-26T01:05:48;99857.72;;;20.93;24.46
62524;BME280;53689;56.878;60.672;2024-02-26T01:08:16;99862.78;;;20.60;26.32
62524;BME280;53689;56.878;60.672;2024-02-26T01:10:45;99868.63;;;20.74;25.93
62524;BME280;53689;56.878;60.672;2024-02-26T01:13:13;99865.16;;;20.82;26.64
62524;BME280;53689;56.878;60.672;2024-02-26T01:15:41;99858.88;;;20.91;25.48
62524;BME280;53689;56.878;60.672;2024-02-26T01:18:09;99867.03;;;20.81;26.33
62524;BME280;53689;56.878;60.672;2024-02-26T01:20:38;99867.34;;;20.96;25.65
62524;BME280;53689;56.878;60.672;2024-02-26T01:23:06;99870.28;;;21.03;26.77
62524;BME280;53689;56.878;60.672;2024-02-26T01:25:34;99865.88;;;21.02;26.16
62524;BME280;53689;56.878;60.672;2024-02-26T01:28:04;99871.63;;;20.71;26.48
62524;BME280;53689;56.878;60.672;2024-02-26T01:30:32;99859.66;;;20.83;26.42
62524;BME280;53689;56.878;60.672;2024-02-26T01:33:00;99865.78;;;20.75;24.46
62524;BME280;53689;56.878;60.672;2024-02-26T01:35:28;99866.25;;;20.71;25.55
62524;BME280;53689;56.878;60.672;2024-02-26T01:37:56;99868.16;;;20.60;26.06
62524;BME280;53689;56.878;60.672;2024-02-26T01:40:26;99866.47;;;20.59;25.42
62524;BME280;53689;56.878;60.672;2024-02-26T01:42:54;99860.41;;;20.75;25.06
62524;BME280;53689;56.878;60.672;2024-02-26T01:45:24;99865.72;;;20.67;25.16
62524;BME280;53689;56.878;60.672;2024-02-26T01:47:52;99862.47;;;20.63;25.87
62524;BME280;53689;56.878;60.672;2024-02-26T01:50:20;99863.56;;;20.71;25.87
62524;BME280;53689;56.878;60.672;2024-02-26T01:52:50;99862.34;;;20.83;26.68
62524;BME280;53689;56.878;60.672;2024-02-26T01:55:17;99872.13;;;20.84;25.59
62524;BME280;53689;56.878;60.672;2024-02-26T01:57:48;99875.69;;;20.75;25.12
62524;BME280;53689;56.878;60.672;2024-02-26T02:00:17;99868.28;;;20.87;25.46
62524;BME280;53689;56.878;60.672;2024-02-26T02:02:47;99864.66;;;20.78;25.76
62524;BME280;53689;56.878;60.672;2024-02-26T02:05:16;99867.09;;;20.71;24.65
62524;BME280;53689;56.878;60.672;2024-02-26T02:07:44;99864.31;;;20.81;25.70
62524;BME280;53689;56.878;60.672;2024-02-26T02:10:12;99865.16;;;20.82;27.24
62524;BME280;53689;56.878;60.672;2024-02-26T02:12:40;99866.44;;;20.87;26.69
62524;BME280;53689;56.878;60.672;2024-02-26T02:15:09;99860.22;;;20.87;26.75
62524;BME280;53689;56.878;60.672;2024-02-26T02:17:37;99860.78;;;20.62;26.62
62524;BME280;53689;56.878;60.672;2024-02-26T02:20:10;99861.44;;;20.92;26.40
62524;BME280;53689;56.878;60.672;2024-02-26T02:22:44;99862.75;;;20.88;26.44
62524;BME280;53689;56.878;60.672;2024-02-26T02:25:12;99859.09;;;20.79;26.48
62524;BME280;53689;56.878;60.672;2024-02-26T02:27:40;99863.78;;;20.77;26.90
62524;BME280;53689;56.878;60.672;2024-02-26T02:30:09;99871.44;;;20.82;26.95
62524;BME280;53689;56.878;60.672;2024-02-26T02:32:39;99868.69;;;20.46;25.40
62524;BME280;53689;56.878;60.672;2024-02-26T02:35:08;99863.00;;;20.49;26.89
62524;BME280;53689;56.878;60.672;2024-02-26T02:37:37;99861.81;;;20.33;26.27
62524;BME280;53689;56.878;60.672;2024-02-26T02:40:07;99853.75;;;20.05;26.37
62524;BME280;53689;56.878;60.672;2024-02-26T02:42:35;99856.84;;;20.10;24.17
62524;BME280;53689;56.878;60.672;2024-02-26T02:45:04;99850.38;;;20.03;24.43
62524;BME280;53689;56.878;60.672;2024-02-26T02:47:36;99856.88;;;20.57;26.85
62524;BME280;53689;56.878;60.672;2024-02-26T02:50:04;99858.28;;;20.33;24.56
62524;BME280;53689;56.878;60.672;2024-02-26T02:52:33;99854.34;;;20.27;26.88
62524;BME280;53689;56.878;60.672;2024-02-26T02:55:01;99860.97;;;20.33;24.10
62524;BME280;53689;56.878;60.672;2024-02-26T02:57:31;99854.44;;;20.35;23.66
62524;BME280;53689;56.878;60.672;2024-02-26T02:59:59;99862.13;;;20.30;26.34
62524;BME280;53689;56.878;60.672;2024-02-26T03:02:27;99851.63;;;20.37;26.02
62524;BME280;53689;56.878;60.672;2024-02-26T03:04:55;99865.91;;;20.09;24.97
62524;BME280;53689;56.878;60.672;2024-02-26T03:07:23;99858.19;;;20.24;25.63
62524;BME280;53689;56.878;60.672;2024-02-26T03:09:51;99854.31;;;20.09;25.76
62524;BME280;53689;56.878;60.672;2024-02-26T03:12:19;99854.34;;;19.99;24.28
62524;BME280;53689;56.878;60.672;2024-02-26T03:14:48;99847.59;;;20.41;26.60
62524;BME280;53689;56.878;60.672;2024-02-26T03:17:16;99853.25;;;20.20;25.57
62524;BME280;53689;56.878;60.672;2024-02-26T03:19:44;99850.69;;;20.46;26.11
62524;BME280;53689;56.878;60.672;2024-02-26T03:22:12;99846.78;;;20.59;23.94
62524;BME280;53689;56.878;60.672;2024-02-26T03:24:40;99852.44;;;20.84;25.47
62524;BME280;53689;56.878;60.672;2024-02-26T03:27:08;99854.97;;;20.85;25.37
62524;BME280;53689;56.878;60.672;2024-02-26T03:29:35;99852.81;;;20.89;25.57
62524;BME280;53689;56.878;60.672;2024-02-26T03:32:08;99858.00;;;20.72;25.74
62524;BME280;53689;56.878;60.672;2024-02-26T03:34:36;99863.66;;;20.79;27.12
62524;BME280;53689;56.878;60.672;2024-02-26T03:37:04;99867.16;;;20.79;24.09
62524;BME280;53689;56.878;60.672;2024-02-26T03:39:32;99865.09;;;20.73;24.92
62524;BME280;53689;56.878;60.672;2024-02-26T03:42:00;99864.19;;;20.36;22.95
62524;BME280;53689;56.878;60.672;2024-02-26T03:44:28;99860.72;;;20.26;24.49
62524;BME280;53689;56.878;60.672;2024-02-26T03:46:55;99865.94;;;20.56;24.88
62524;BME280;53689;56.878;60.672;2024-02-26T03:49:25;99872.81;;;20.40;24.97
62524;BME280;53689;56.878;60.672;2024-02-26T03:51:53;99877.84;;;20.53;27.30
62524;BME280;53689;56.878;60.672;2024-02-26T03:54:21;99867.97;;;20.44;25.63
62524;BME280;53689;56.878;60.672;2024-02-26T03:56:49;99867.06;;;20.53;25.87
62524;BME280;53689;56.878;60.672;2024-02-26T03:59:17;99872.78;;;20.50;26.55
62524;BME280;53689;56.878;60.672;2024-02-26T04:01:45;99878.34;;;20.38;24.52
62524;BME280;53689;56.878;60.672;2024-02-26T04:04:13;99874.38;;;20.61;25.00
62524;BME280;53689;56.878;60.672;2024-02-26T04:06:46;99878.41;;;20.29;25.87
62524;BME280;53689;56.878;60.672;2024-02-26T04:09:14;99875.28;;;20.33;27.00
62524;BME280;53689;56.878;60.672;2024-02-26T04:11:42;99868.31;;;20.41;26.77
62524;BME280;53689;56.878;60.672;2024-02-26T04:14:10;99861.28;;;20.48;26.65
62524;BME280;53689;56.878;60.672;2024-02-26T04:16:38;99855.91;;;20.48;24.92
62524;BME280;53689;56.878;60.672;2024-02-26T04:19:06;99861.72;;;20.25;22.52
62524;BME280;53689;56.878;60.672;2024-02-26T04:21:35;99861.25;;;20.12;22.59
62524;BME280;53689;56.878;60.672;2024-02-26T04:24:05;99852.56;;;20.18;22.43
62524;BME280;53689;56.878;60.672;2024-02-26T04:26:32;99856.56;;;20.14;23.01
62524;BME280;53689;56.878;60.672;2024-02-26T04:29:00;99870.78;;;20.24;23.83
62524;BME280;53689;56.878;60.672;2024-02-26T04:31:28;99877.38;;;20.40;23.13
62524;BME280;53689;56.878;60.672;2024-02-26T04:33:56;99861.75;;;20.43;22.63
62524;BME280;53689;56.878;60.672;2024-02-26T04:36:24;99860.03;;;20.24;23.48
62524;BME280;53689;56.878;60.672;2024-02-26T04:38:52;99857.03;;;19.99;22.91
62524;BME280;53689;56.878;60.672;2024-02-26T04:41:21;99859.44;;;20.02;22.71
62524;BME280;53689;56.878;60.672;2024-02-26T04:43:49;99858.03;;;19.98;23.40
62524;BME280;53689;56.878;60.672;2024-02-26T04:46:17;99867.09;;;19.97;23.02
62524;BME280;53689;56.878;60.672;2024-02-26T04:48:45;99873.28;;;20.07;23.29
62524;BME280;53689;56.878;60.672;2024-02-26T04:51:13;99875.56;;;20.02;24.62
62524;BME280;53689;56.878;60.672;2024-02-26T04:53:41;99869.66;;;19.99;23.45
62524;BME280;53689;56.878;60.672;2024-02-26T04:56:09;99869.09;;;19.85;23.35
62524;BME280;53689;56.878;60.672;2024-02-26T04:58:38;99866.09;;;19.98;24.62
62524;BME280;53689;56.878;60.672;2024-02-26T05:01:06;99866.13;;;19.88;22.65
62524;BME280;53689;56.878;60.672;2024-02-26T05:03:34;99874.63;;;19.83;23.33
62524;BME280;53689;56.878;60.672;2024-02-26T05:06:04;99877.72;;;19.89;24.31
62524;BME280;53689;56.878;60.672;2024-02-26T05:08:32;99876.97;;;20.06;23.03
62524;BME280;53689;56.878;60.672;2024-02-26T05:11:00;99867.66;;;19.91;23.48
62524;BME280;53689;56.878;60.672;2024-02-26T05:13:28;99874.81;;;20.38;25.08
62524;BME280;53689;56.878;60.672;2024-02-26T05:15:57;99878.34;;;20.38;23.75
62524;BME280;53689;56.878;60.672;2024-02-26T05:18:25;99877.16;;;19.95;23.32
62524;BME280;53689;56.878;60.672;2024-02-26T05:20:53;99879.34;;;20.37;23.48
62524;BME280;53689;56.878;60.672;2024-02-26T05:23:21;99862.16;;;20.66;24.52
62524;BME280;53689;56.878;60.672;2024-02-26T05:25:50;99863.94;;;20.76;24.41
62524;BME280;53689;56.878;60.672;2024-02-26T05:28:18;99866.22;;;20.99;24.77
62524;BME280;53689;56.878;60.672;2024-02-26T05:30:46;99859.34;;;20.22;24.94
62524;BME280;53689;56.878;60.672;2024-02-26T05:33:15;99861.34;;;20.66;25.86
62524;BME280;53689;56.878;60.672;2024-02-26T05:35:46;99872.34;;;21.09;24.67
62524;BME280;53689;56.878;60.672;2024-02-26T05:38:14;99864.53;;;20.51;22.89
62524;BME280;53689;56.878;60.672;2024-02-26T05:40:41;99859.59;;;19.43;22.51
62524;BME280;53689;56.878;60.672;2024-02-26T05:43:10;99863.59;;;20.43;22.78
62524;BME280;53689;56.878;60.672;2024-02-26T05:45:37;99870.13;;;20.12;23.98
62524;BME280;53689;56.878;60.672;2024-02-26T05:48:06;99862.09;;;20.76;22.64
62524;BME280;53689;56.878;60.672;2024-02-26T05:50:35;99859.06;;;20.43;23.75
62524;BME280;53689;56.878;60.672;2024-02-26T05:53:04;99855.56;;;20.79;24.73
62524;BME280;53689;56.878;60.672;2024-02-26T05:55:31;99857.53;;;20.59;24.30
62524;BME280;53689;56.878;60.672;2024-02-26T05:57:59;99853.25;;;20.20;25.54
62524;BME280;53689;56.878;60.672;2024-02-26T06:00:27;99853.16;;;20.40;25.37
62524;BME280;53689;56.878;60.672;2024-02-26T06:02:55;99861.69;;;20.35;25.45
62524;BME280;53689;56.878;60.672;2024-02-26T06:05:23;99858.78;;;20.46;25.50
62524;BME280;53689;56.878;60.672;2024-02-26T06:07:53;99854.16;;;20.57;21.85
62524;BME280;53689;56.878;60.672;2024-02-26T06:10:21;99855.25;;;20.18;23.82
62524;BME280;53689;56.878;60.672;2024-02-26T06:12:49;99848.00;;;20.46;23.51
62524;BME280;53689;56.878;60.672;2024-02-26T06:15:17;99849.13;;;20.26;22.60
62524;BME280;53689;56.878;60.672;2024-02-26T06:17:45;99848.69;;;20.30;22.04
62524;BME280;53689;56.878;60.672;2024-02-26T06:20:13;99855.50;;;20.71;23.27
62524;BME280;53689;56.878;60.672;2024-02-26T06:22:41;99864.84;;;20.66;23.57
62524;BME280;53689;56.878;60.672;2024-02-26T06:25:10;99865.34;;;20.80;22.71
62524;BME280;53689;56.878;60.672;2024-02-26T06:27:38;99859.00;;;20.71;24.72
62524;BME280;53689;56.878;60.672;2024-02-26T06:30:07;99862.69;;;20.70;22.42
62524;BME280;53689;56.878;60.672;2024-02-26T06:32:35;99856.50;;;20.70;22.80
62524;BME280;53689;56.878;60.672;2024-02-26T06:35:04;99860.63;;;20.64;23.54
62524;BME280;53689;56.878;60.672;2024-02-26T06:37:35;99862.41;;;20.27;23.12
62524;BME280;53689;56.878;60.672;2024-02-26T06:40:03;99861.25;;;20.76;24.76
62524;BME280;53689;56.878;60.672;2024-02-26T06:42:33;99855.25;;;20.64;23.98
62524;BME280;53689;56.878;60.672;2024-02-26T06:45:01;99860.25;;;20.59;24.92
62524;BME280;53689;56.878;60.672;2024-02-26T06:47:29;99850.84;;;20.45;23.75
62524;BME280;53689;56.878;60.672;2024-02-26T06:49:57;99845.16;;;20.48;24.24
62524;BME280;53689;56.878;60.672;2024-02-26T06:52:25;99851.53;;;20.47;24.39
62524;BME280;53689;56.878;60.672;2024-02-26T06:54:54;99837.78;;;20.50;24.69
62524;BME280;53689;56.878;60.672;2024-02-26T06:57:22;99840.34;;;20.70;25.02
62524;BME280;53689;56.878;60.672;2024-02-26T06:59:51;99841.78;;;20.46;24.24
62524;BME280;53689;56.878;60.672;2024-02-26T07:02:20;99833.69;;;20.28;22.68
62524;BME280;53689;56.878;60.672;2024-02-26T07:04:48;99838.41;;;20.16;23.54
62524;BME280;53689;56.878;60.672;2024-02-26T07:07:16;99831.91;;;20.18;23.14
62524;BME280;53689;56.878;60.672;2024-02-26T07:09:44;99835.03;;;19.76;22.40
62524;BME280;53689;56.878;60.672;2024-02-26T07:12:12;99838.13;;;20.19;24.59
62524;BME280;53689;56.878;60.672;2024-02-26T07:14:40;99834.50;;;20.10;24.15
62524;BME280;53689;56.878;60.672;2024-02-26T07:17:09;99835.38;;;20.01;23.92
62524;BME280;53689;56.878;60.672;2024-02-26T07:19:37;99826.88;;;20.05;23.71
62524;BME280;53689;56.878;60.672;2024-02-26T07:22:05;99829.31;;;19.89;23.13
62524;BME280;53689;56.878;60.672;2024-02-26T07:24:33;99826.19;;;20.03;23.04
62524;BME280;53689;56.878;60.672;2024-02-26T07:27:01;99826.34;;;19.92;24.73
62524;BME280;53689;56.878;60.672;2024-02-26T07:29:30;99819.06;;;19.74;23.74
62524;BME280;53689;56.878;60.672;2024-02-26T07:31:58;99814.19;;;19.88;22.17
62524;BME280;53689;56.878;60.672;2024-02-26T07:34:27;99809.50;;;19.90;25.51
62524;BME280;53689;56.878;60.672;2024-02-26T07:36:55;99801.34;;;19.81;25.77
62524;BME280;53689;56.878;60.672;2024-02-26T07:39:24;99804.75;;;19.83;25.51
62524;BME280;53689;56.878;60.672;2024-02-26T07:41:52;99797.34;;;19.95;22.60
62524;BME280;53689;56.878;60.672;2024-02-26T07:44:20;99802.94;;;19.74;22.27
62524;BME280;53689;56.878;60.672;2024-02-26T07:46:48;99792.38;;;20.01;22.66
62524;BME280;53689;56.878;60.672;2024-02-26T07:49:16;99802.72;;;19.95;23.27
62524;BME280;53689;56.878;60.672;2024-02-26T07:51:45;99793.28;;;19.81;21.56
62524;BME280;53689;56.878;60.672;2024-02-26T07:54:13;99808.19;;;20.04;22.97
62524;BME280;53689;56.878;60.672;2024-02-26T07:56:41;99795.38;;;19.60;22.53
62524;BME280;53689;56.878;60.672;2024-02-26T07:59:09;99797.97;;;19.79;21.47
62524;BME280;53689;56.878;60.672;2024-02-26T08:01:37;99797.50;;;19.94;22.00
62524;BME280;53689;56.878;60.672;2024-02-26T08:04:05;99795.16;;;19.71;22.47
62524;BME280;53689;56.878;60.672;2024-02-26T08:06:33;99793.91;;;19.65;22.89
62524;BME280;53689;56.878;60.672;2024-02-26T08:09:06;99796.16;;;19.70;22.29
62524;BME280;53689;56.878;60.672;2024-02-26T08:11:34;99790.47;;;19.45;22.82
62524;BME280;53689;56.878;60.672;2024-02-26T08:14:02;99789.69;;;19.91;25.03
62524;BME280;53689;56.878;60.672;2024-02-26T08:16:30;99795.25;;;19.51;22.86
62524;BME280;53689;56.878;60.672;2024-02-26T08:19:01;99791.72;;;19.51;23.41
62524;BME280;53689;56.878;60.672;2024-02-26T08:21:29;99781.09;;;19.59;23.39
62524;BME280;53689;56.878;60.672;2024-02-26T08:23:57;99790.97;;;19.68;22.64
62524;BME280;53689;56.878;60.672;2024-02-26T08:26:27;99779.00;;;19.43;22.10
62524;BME280;53689;56.878;60.672;2024-02-26T08:28:54;99782.38;;;19.55;22.51
62524;BME280;53689;56.878;60.672;2024-02-26T08:31:22;99779.44;;;19.48;23.07
62524;BME280;53689;56.878;60.672;2024-02-26T08:33:50;99780.97;;;19.51;22.26
62524;BME280;53689;56.878;60.672;2024-02-26T08:36:18;99779.00;;;19.53;22.76
62524;BME280;53689;56.878;60.672;2024-02-26T08:38:47;99772.50;;;19.55;22.42
62524;BME280;53689;56.878;60.672;2024-02-26T08:41:15;99775.63;;;19.51;22.45
62524;BME280;53689;56.878;60.672;2024-02-26T08:43:44;99776.25;;;19.63;23.22
62524;BME280;53689;56.878;60.672;2024-02-26T08:46:13;99772.31;;;19.57;22.46
62524;BME280;53689;56.878;60.672;2024-02-26T08:48:41;99766.50;;;19.62;22.57
62524;BME280;53689;56.878;60.672;2024-02-26T08:51:09;99770.50;;;19.58;22.30
62524;BME280;53689;56.878;60.672;2024-02-26T08:53:38;99768.81;;;19.57;22.54
62524;BME280;53689;56.878;60.672;2024-02-26T08:56:10;99768.50;;;19.60;22.33
62524;BME280;53689;56.878;60.672;2024-02-26T08:58:38;99773.56;;;19.91;22.77
62524;BME280;53689;56.878;60.672;2024-02-26T09:01:08;99772.41;;;19.75;21.94
62524;BME280;53689;56.878;60.672;2024-02-26T09:03:35;99772.28;;;19.67;21.77
62524;BME280;53689;56.878;60.672;2024-02-26T09:06:04;99769.59;;;19.67;22.50
62524;BME280;53689;56.878;60.672;2024-02-26T09:08:32;99769.03;;;19.73;23.10
62524;BME280;53689;56.878;60.672;2024-02-26T09:11:00;99772.09;;;20.06;25.77
62524;BME280;53689;56.878;60.672;2024-02-26T09:13:28;99768.63;;;19.86;22.81
62524;BME280;53689;56.878;60.672;2024-02-26T09:15:59;99775.28;;;19.92;23.43
62524;BME280;53689;56.878;60.672;2024-02-26T09:18:28;99777.94;;;20.02;23.27
62524;BME280;53689;56.878;60.672;2024-02-26T09:20:56;99779.53;;;19.94;24.25
62524;BME280;53689;56.878;60.672;2024-02-26T09:23:25;99793.84;;;20.13;24.79
62524;BME280;53689;56.878;60.672;2024-02-26T09:25:53;99792.25;;;20.20;24.70
62524;BME280;53689;56.878;60.672;2024-02-26T09:28:21;99802.38;;;20.08;24.49
62524;BME280;53689;56.878;60.672;2024-02-26T09:30:49;99800.56;;;19.99;23.18
62524;BME280;53689;56.878;60.672;2024-02-26T09:33:17;99791.34;;;20.12;22.02
62524;BME280;53689;56.878;60.672;2024-02-26T09:35:47;99795.66;;;20.41;22.88
62524;BME280;53689;56.878;60.672;2024-02-26T09:38:15;99806.25;;;20.78;23.48
62524;BME280;53689;56.878;60.672;2024-02-26T09:40:42;99803.66;;;20.50;23.82
62524;BME280;53689;56.878;60.672;2024-02-26T09:43:13;99796.50;;;19.95;23.80
62524;BME280;53689;56.878;60.672;2024-02-26T09:45:42;99791.28;;;20.94;24.12
62524;BME280;53689;56.878;60.672;2024-02-26T09:48:11;99782.19;;;20.77;23.08
62524;BME280;53689;56.878;60.672;2024-02-26T09:50:41;99781.88;;;20.62;23.54
62524;BME280;53689;56.878;60.672;2024-02-26T09:53:12;99785.22;;;20.92;22.97
62524;BME280;53689;56.878;60.672;2024-02-26T09:55:40;99781.19;;;20.96;22.25
62524;BME280;53689;56.878;60.672;2024-02-26T09:58:08;99775.75;;;21.14;21.80
62524;BME280;53689;56.878;60.672;2024-02-26T10:00:37;99779.25;;;21.06;22.80
62524;BME280;53689;56.878;60.672;2024-02-26T10:03:09;99780.03;;;21.25;23.21
62524;BME280;53689;56.878;60.672;2024-02-26T10:05:41;99775.81;;;21.23;23.23
62524;BME280;53689;56.878;60.672;2024-02-26T10:08:14;99766.06;;;20.95;23.46
62524;BME280;53689;56.878;60.672;2024-02-26T10:10:42;99773.03;;;21.06;22.77
62524;BME280;53689;56.878;60.672;2024-02-26T10:13:10;99782.88;;;21.15;23.64
62524;BME280;53689;56.878;60.672;2024-02-26T10:15:38;99766.53;;;21.17;23.64
62524;BME280;53689;56.878;60.672;2024-02-26T10:18:06;99772.09;;;21.15;21.37
62524;BME280;53689;56.878;60.672;2024-02-26T10:20:34;99769.88;;;21.11;23.80
62524;BME280;53689;56.878;60.672;2024-02-26T10:23:03;99768.69;;;21.13;23.42
62524;BME280;53689;56.878;60.672;2024-02-26T10:25:32;99762.63;;;21.11;22.92
62524;BME280;53689;56.878;60.672;2024-02-26T10:28:00;99745.31;;;21.14;21.89
62524;BME280;53689;56.878;60.672;2024-02-26T10:30:28;99739.38;;;21.10;23.47
62524;BME280;53689;56.878;60.672;2024-02-26T10:32:56;99730.88;;;21.23;22.96
62524;BME280;53689;56.878;60.672;2024-02-26T10:35:24;99723.00;;;21.30;22.52
62524;BME280;53689;56.878;60.672;2024-02-26T10:37:52;99726.06;;;21.35;23.78
62524;BME280;53689;56.878;60.672;2024-02-26T10:40:20;99722.03;;;21.39;22.27
62524;BME280;53689;56.878;60.672;2024-02-26T10:42:50;99727.09;;;21.42;22.45
62524;BME280;53689;56.878;60.672;2024-02-26T10:45:17;99727.75;;;21.36;22.09
62524;BME280;53689;56.878;60.672;2024-02-26T10:47:46;99730.72;;;21.25;22.49
62524;BME280;53689;56.878;60.672;2024-02-26T10:50:14;99735.78;;;21.28;22.80
62524;BME280;53689;56.878;60.672;2024-02-26T10:52:42;99730.41;;;21.28;22.96
62524;BME280;53689;56.878;60.672;2024-02-26T10:55:15;99734.16;;;21.35;21.38
62524;BME280;53689;56.878;60.672;2024-02-26T10:57:44;99732.81;;;21.39;22.58
62524;BME280;53689;56.878;60.672;2024-02-26T11:00:15;99744.59;;;21.38;21.88
62524;BME280;53689;56.878;60.672;2024-02-26T11:02:44;99741.03;;;21.38;22.47
62524;BME280;53689;56.878;60.672;2024-02-26T11:05:13;99745.47;;;21.47;22.00
62524;BME280;53689;56.878;60.672;2024-02-26T11:07:42;99748.69;;;21.51;21.05
62524;BME280;53689;56.878;60.672;2024-02-26T11:10:11;99744.47;;;21.48;21.53
62524;BME280;53689;56.878;60.672;2024-02-26T11:12:39;99754.13;;;21.59;21.44
62524;BME280;53689;56.878;60.672;2024-02-26T11:15:09;99757.63;;;21.51;20.76
62524;BME280;53689;56.878;60.672;2024-02-26T11:17:39;99766.97;;;21.65;22.38
62524;BME280;53689;56.878;60.672;2024-02-26T11:20:10;99765.22;;;21.56;22.47
62524;BME280;53689;56.878;60.672;2024-02-26T11:22:38;99761.00;;;21.53;21.65
62524;BME280;53689;56.878;60.672;2024-02-26T11:25:07;99759.50;;;21.59;22.96
62524;BME280;53689;56.878;60.672;2024-02-26T11:27:37;99758.00;;;21.65;22.54
62524;BME280;53689;56.878;60.672;2024-02-26T11:30:09;99749.38;;;21.53;21.70
62524;BME280;53689;56.878;60.672;2024-02-26T11:32:39;99747.38;;;21.55;21.56
62524;BME280;53689;56.878;60.672;2024-02-26T11:35:08;99751.44;;;21.59;22.49
62524;BME280;53689;56.878;60.672;2024-02-26T11:37:36;99755.50;;;21.63;21.32
62524;BME280;53689;56.878;60.672;2024-02-26T11:40:11;99755.31;;;21.65;23.19
62524;BME280;53689;56.878;60.672;2024-02-26T11:42:44;99750.06;;;21.55;21.86
62524;BME280;53689;56.878;60.672;2024-02-26T11:48:15;99755.06;;;21.68;22.41
62524;BME280;53689;56.878;60.672;2024-02-26T11:50:47;99759.09;;;21.72;21.97
62524;BME280;53689;56.878;60.672;2024-02-26T11:53:22;99750.38;;;21.78;21.67
62524;BME280;53689;56.878;60.672;2024-02-26T11:56:23;99739.75;;;21.76;21.93
62524;BME280;53689;56.878;60.672;2024-02-26T11:59:01;99733.56;;;21.58;20.91
62524;BME280;53689;56.878;60.672;2024-02-26T12:01:37;99739.94;;;21.48;21.99
62524;BME280;53689;56.878;60.672;2024-02-26T12:04:07;99739.13;;;21.56;21.99
62524;BME280;53689;56.878;60.672;2024-02-26T12:06:46;99736.63;;;21.63;22.64
62524;BME280;53689;56.878;60.672;2024-02-26T12:09:35;99749.78;;;21.66;21.20
62524;BME280;53689;56.878;60.672;2024-02-26T12:12:05;99753.84;;;21.70;22.14
62524;BME280;53689;56.878;60.672;2024-02-26T12:14:34;99745.09;;;21.68;21.81
62524;BME280;53689;56.878;60.672;2024-02-26T12:17:03;99752.16;;;21.69;22.78
62524;BME280;53689;56.878;60.672;2024-02-26T12:19:34;99751.34;;;21.69;21.41
62524;BME280;53689;56.878;60.672;2024-02-26T12:22:03;99756.25;;;21.73;22.81
62524;BME280;53689;56.878;60.672;2024-02-26T12:24:31;99761.78;;;21.72;22.20
62524;BME280;53689;56.878;60.672;2024-02-26T12:26:59;99758.97;;;21.90;22.99
62524;BME280;53689;56.878;60.672;2024-02-26T12:29:27;99767.22;;;21.80;22.25
62524;BME280;53689;56.878;60.672;2024-02-26T12:31:55;99768.91;;;21.81;21.66
62524;BME280;53689;56.878;60.672;2024-02-26T12:34:23;99769.44;;;21.85;22.50
62524;BME280;53689;56.878;60.672;2024-02-26T12:36:54;99768.44;;;21.94;22.37
62524;BME280;53689;56.878;60.672;2024-02-26T12:39:21;99773.47;;;21.89;21.10
62524;BME280;53689;56.878;60.672;2024-02-26T12:41:49;99770.06;;;21.79;21.64
62524;BME280;53689;56.878;60.672;2024-02-26T12:44:17;99781.75;;;21.96;21.28
62524;BME280;53689;56.878;60.672;2024-02-26T12:46:45;99773.03;;;22.10;19.67
62524;BME280;53689;56.878;60.672;2024-02-26T12:49:15;99779.25;;;22.02;20.08
62524;BME280;53689;56.878;60.672;2024-02-26T12:51:44;99769.50;;;22.01;20.41
62524;BME280;53689;56.878;60.672;2024-02-26T12:54:14;99775.00;;;21.92;20.11
62524;BME280;53689;56.878;60.672;2024-02-26T12:56:42;99773.31;;;21.90;21.21
62524;BME280;53689;56.878;60.672;2024-02-26T12:59:10;99775.03;;;22.00;20.17
62524;BME280;53689;56.878;60.672;2024-02-26T13:01:38;99765.41;;;21.97;20.39